Share

Pago Pago, AS

8:11 PM SST on April 24, 2014 (GMT -1100)
Lanai City (PHNY) Elev 1309 ft | 20.79 °N, 156.95 °W | Change Station

Current weather conditions updated 15 minutes ago

Scattered Clouds
Scattered Clouds
70 °F
Feels Like 70 °F
N
14
Wind Variable Wind from NE
Sunrise 6:30 AM
Sunset 6:10 PM
Moon Waning Crescent

Tomorrow is forecast to be nearly the same temperature as today. Thunderstorms.

Pressure 30.09 in
Visibility 10.0 miles
Clouds Scattered Clouds 3000 ft
Dew Point 66 °F
Humidity 87%
Rainfall 0.00 in
Snow Depth Not available.
UV 0 out of 16
Pollen Not available.
Air Quality Not available.
Flu Activity
METAR PHNY 250656Z AUTO 04012KT 10SM SCT030 21/19 A3015 RMK AO2 TSNO T02110188 SLP190 $

More Conditions Fewer Conditions

Pressure 30.09 in
Visibility 10.0 miles
Clouds Scattered Clouds 3000 ft
Dew Point 66 °F
Humidity 87%
Rainfall 0.00 in
Snow Depth Not available.
UV 0 out of 16
Pollen Not available.
Air Quality Not available.
Flu Activity
METAR PHNY 250656Z AUTO 04012KT 10SM SCT030 21/19 A3015 RMK AO2 TSNO T02110188 SLP190 $

More Conditions Fewer Conditions

10-Day Weather Forecast

Almanac

Astronomy

Apr. 24, 2014 Rise Set
Actual Time 6:30 AM SST 6:10 PM SST
Civil Twilight 6:09 AM SST 6:32 PM SST
Nautical Twilight 5:43 AM SST 6:57 PM SST
Astronomical Twilight 5:18 AM SST 7:23 PM SST
Moon 2:23 AM SST (4/24) 2:58 PM SST (4/24)
Length of Visible Light 12h 23m
Length of Day
11h 39m
Tomorrow will be 0m 42s shorter.
Waning Crescent, 18% of the Moon is Illuminated
Apr 25
Waning Crescent
Apr 29
New
May 6
First Quarter
May 14
Full
May 21
Last Quarter

Community

  • Deer in evening light
    Deer in evening light
  • Critter
    Critter
  • Jone Runs Falls
    Jone Runs Falls
  • Easter in Shenandoah National Park
    Easter in Shenandoah National Park
  • Sunset at Apalachicola Bay, Florida
    Sunset at Apalachicola Bay, Florida

WunderPhotos

Upload Photos

1,704,870 photos uploaded!

WunderBlogs® & News

Nearby

Snow Depth

Station Depth Elevation
No new snow has been reported.

Coastal Water Temperatures

Place Temperature
No Stations Reporting

Earthquake Activity

City Distance Mag. Time & Date
No recent earthquake activity has been reported nearby.
Minimum magnitude displayed is 2.5.

Nearby Weather Stations

There are no personal weather stations in this area.

What do you think?

We're not finished. Please let us know what you like, what you don't like, and what you are still missing.